createdAt,value
2023-02-08T00:00:15.629Z,24.90
2023-02-08T00:02:42.809Z,24.60
2023-02-08T00:05:10.065Z,21.60
2023-02-08T00:07:37.328Z,22.90
2023-02-08T00:10:06.265Z,25.50
2023-02-08T00:12:35.840Z,23.80
2023-02-08T00:15:03.928Z,22.10
2023-02-08T00:17:31.337Z,25.10
2023-02-08T00:19:58.285Z,23.80
2023-02-08T00:22:25.080Z,24.50
2023-02-08T00:24:51.941Z,23.00
2023-02-08T00:27:18.945Z,23.60
2023-02-08T00:29:46.349Z,21.90
2023-02-08T00:32:13.554Z,27.20
2023-02-08T00:34:41.762Z,23.80
2023-02-08T00:37:10.543Z,24.20
2023-02-08T00:39:37.743Z,23.90
2023-02-08T00:42:04.784Z,28.30
2023-02-08T00:44:32.909Z,26.50
2023-02-08T00:46:59.750Z,26.50
2023-02-08T00:49:26.613Z,25.70
2023-02-08T00:51:53.580Z,24.90
2023-02-08T00:54:20.631Z,26.30
2023-02-08T00:56:47.678Z,27.50
2023-02-08T00:59:14.560Z,31.40
2023-02-08T01:01:44.024Z,31.40
2023-02-08T01:04:11.176Z,31.70
2023-02-08T01:06:42.571Z,27.70
2023-02-08T01:09:11.756Z,26.10
2023-02-08T01:11:38.816Z,26.90
2023-02-08T01:14:05.934Z,25.50
2023-02-08T01:16:33.359Z,30.90
2023-02-08T01:19:01.148Z,29.30
2023-02-08T01:21:29.998Z,27.70
2023-02-08T01:24:01.586Z,27.90
2023-02-08T01:26:34.468Z,22.80
2023-02-08T01:29:01.694Z,25.20
2023-02-08T01:31:33.918Z,26.60
2023-02-08T01:34:00.816Z,26.20
2023-02-08T01:36:28.072Z,24.50
2023-02-08T01:38:54.971Z,27.00
2023-02-08T01:41:26.709Z,27.90
2023-02-08T01:44:12.128Z,27.00
2023-02-08T01:46:42.325Z,28.80
2023-02-08T01:49:19.455Z,28.30
2023-02-08T01:51:52.201Z,30.00
2023-02-08T01:54:21.556Z,26.60
2023-02-08T01:56:48.631Z,25.10
2023-02-08T01:59:56.538Z,26.20
2023-02-08T02:02:24.936Z,30.90
2023-02-08T02:04:53.674Z,28.00
2023-02-08T02:07:21.325Z,28.50
2023-02-08T02:09:51.281Z,29.00
2023-02-08T02:12:19.631Z,28.00
2023-02-08T02:14:46.480Z,27.90
2023-02-08T02:17:13.474Z,30.80
2023-02-08T02:20:09.798Z,29.00
2023-02-08T02:22:58.308Z,24.60
2023-02-08T02:25:44.938Z,29.00
2023-02-08T02:28:34.107Z,29.60
2023-02-08T02:31:21.707Z,29.10
2023-02-08T02:33:53.091Z,26.20
2023-02-08T02:36:52.007Z,27.60
2023-02-08T02:39:31.039Z,31.10
2023-02-08T02:42:33.667Z,27.90
2023-02-08T02:45:15.541Z,29.20
2023-02-08T02:50:53.446Z,28.70
2023-02-08T02:53:28.841Z,29.50
2023-02-08T02:56:01.168Z,26.40
2023-02-08T02:58:28.076Z,28.70
2023-02-08T03:00:56.128Z,29.30
2023-02-08T03:03:25.952Z,31.40
2023-02-08T03:05:56.054Z,28.90
2023-02-08T03:09:03.578Z,29.30
2023-02-08T03:11:32.721Z,30.30
2023-02-08T03:14:12.591Z,29.40
2023-02-08T03:17:07.696Z,28.20
2023-02-08T03:20:26.154Z,29.40
2023-02-08T03:23:10.888Z,27.10
2023-02-08T03:25:50.804Z,29.30
2023-02-08T03:28:20.384Z,31.90
2023-02-08T03:30:56.499Z,29.20
2023-02-08T03:33:35.411Z,30.80
2023-02-08T03:36:10.241Z,30.00
2023-02-08T03:38:40.252Z,31.00
2023-02-08T03:41:09.774Z,31.90
2023-02-08T03:43:40.549Z,34.50
2023-02-08T03:46:15.250Z,32.30
2023-02-08T03:48:49.218Z,29.00
2023-02-08T03:51:16.008Z,30.90
2023-02-08T03:53:44.230Z,29.70
2023-02-08T03:56:20.341Z,33.40
2023-02-08T03:58:55.527Z,30.00
2023-02-08T04:01:36.336Z,32.10
2023-02-08T04:04:03.441Z,31.20
2023-02-08T04:06:32.172Z,30.20
2023-02-08T04:08:58.972Z,31.90
2023-02-08T04:11:28.347Z,30.30
2023-02-08T04:13:56.018Z,31.60
2023-02-08T04:16:22.908Z,32.30
2023-02-08T04:18:50.033Z,33.30
2023-02-08T04:21:17.020Z,35.60
2023-02-08T04:23:44.077Z,32.10
2023-02-08T04:26:10.918Z,31.00
2023-02-08T04:28:37.700Z,32.70
2023-02-08T04:31:04.731Z,35.40
2023-02-08T04:33:31.825Z,36.10
2023-02-08T04:35:59.192Z,39.20
2023-02-08T04:38:26.114Z,38.00
2023-02-08T04:40:52.852Z,41.60
2023-02-08T04:43:19.652Z,36.70
2023-02-08T04:45:49.541Z,33.50
2023-02-08T04:48:17.031Z,35.70
2023-02-08T04:50:43.915Z,33.50
2023-02-08T04:53:10.689Z,36.30
2023-02-08T04:55:37.674Z,38.20
2023-02-08T04:58:04.603Z,38.40
2023-02-08T05:00:31.819Z,38.00
2023-02-08T05:03:01.551Z,34.80
2023-02-08T05:05:28.572Z,40.10
2023-02-08T05:07:57.035Z,39.60
2023-02-08T05:10:24.012Z,36.30
2023-02-08T05:12:50.892Z,37.70
2023-02-08T05:15:17.941Z,40.50
2023-02-08T05:17:45.288Z,40.70
2023-02-08T05:20:13.197Z,36.40
2023-02-08T05:22:40.132Z,39.50
2023-02-08T05:25:07.609Z,40.10
2023-02-08T05:27:35.157Z,43.90
2023-02-08T05:30:03.204Z,39.40
2023-02-08T05:32:30.595Z,36.50
2023-02-08T05:34:57.397Z,39.10
2023-02-08T05:37:24.740Z,39.10
2023-02-08T05:39:51.815Z,42.80
2023-02-08T05:42:18.609Z,41.60
2023-02-08T05:44:45.525Z,42.90
2023-02-08T05:47:12.905Z,37.50
2023-02-08T05:49:39.943Z,45.20
2023-02-08T05:52:07.107Z,41.90
2023-02-08T05:54:34.648Z,43.80
2023-02-08T05:57:01.517Z,44.90
2023-02-08T05:59:28.801Z,47.60
2023-02-08T06:01:55.676Z,50.30
2023-02-08T06:04:22.641Z,44.80
2023-02-08T06:06:49.578Z,48.20
2023-02-08T06:09:16.494Z,52.20
2023-02-08T06:11:44.249Z,49.00
2023-02-08T06:14:13.452Z,52.10
2023-02-08T06:16:40.518Z,43.70
2023-02-08T06:19:07.322Z,55.60
2023-02-08T06:21:34.319Z,45.00
2023-02-08T06:24:03.402Z,42.50
2023-02-08T06:26:30.217Z,42.40
2023-02-08T06:28:58.633Z,47.20
2023-02-08T06:31:25.476Z,49.30
2023-02-08T06:33:52.738Z,49.90
2023-02-08T06:36:19.578Z,44.10
2023-02-08T06:38:46.778Z,42.20
2023-02-08T06:41:13.592Z,42.80
2023-02-08T06:43:40.757Z,44.50
2023-02-08T06:46:08.158Z,44.00
2023-02-08T06:48:35.240Z,41.80
2023-02-08T06:51:02.058Z,42.90
2023-02-08T06:53:29.258Z,45.60
2023-02-08T06:55:56.261Z,37.00
2023-02-08T06:58:23.143Z,42.50
2023-02-08T07:00:50.553Z,40.80
2023-02-08T07:03:17.421Z,37.60
2023-02-08T07:05:58.723Z,42.00
2023-02-08T07:08:32.860Z,37.70
2023-02-08T07:11:15.384Z,37.40
2023-02-08T07:13:47.153Z,42.90
2023-02-08T07:16:14.400Z,43.80
2023-02-08T07:18:41.627Z,34.90
2023-02-08T07:21:10.097Z,38.50
2023-02-08T07:23:38.885Z,42.00
2023-02-08T07:26:07.670Z,38.80
2023-02-08T07:28:36.872Z,39.90
2023-02-08T07:31:08.123Z,38.70
2023-02-08T07:33:35.053Z,42.00
2023-02-08T07:36:04.816Z,38.50
2023-02-08T07:38:33.256Z,38.30
2023-02-08T07:41:04.912Z,36.20
2023-02-08T07:46:17.772Z,39.70
2023-02-08T07:48:44.852Z,34.60
2023-02-08T07:51:11.927Z,37.70
2023-02-08T07:53:39.904Z,40.00
2023-02-08T07:56:06.840Z,39.80
2023-02-08T07:58:36.886Z,35.30
2023-02-08T08:01:19.594Z,36.70
2023-02-08T08:03:49.859Z,35.60
2023-02-08T08:06:18.265Z,39.70
2023-02-08T08:08:47.105Z,36.50
2023-02-08T08:11:15.139Z,38.50
2023-02-08T08:13:43.209Z,38.10
2023-02-08T08:16:09.995Z,40.60
2023-02-08T08:18:37.054Z,40.50
2023-02-08T08:21:04.504Z,38.10
2023-02-08T08:23:32.825Z,35.80
2023-02-08T08:26:00.154Z,38.90
2023-02-08T08:28:27.310Z,37.90
2023-02-08T08:30:54.450Z,37.20
2023-02-08T08:33:21.322Z,37.60
2023-02-08T08:35:48.524Z,38.10
2023-02-08T08:38:15.591Z,41.30
2023-02-08T08:40:42.996Z,41.80
2023-02-08T08:43:10.533Z,34.80
2023-02-08T08:45:37.767Z,38.10
2023-02-08T08:48:05.395Z,38.40
2023-02-08T08:50:33.629Z,36.30
2023-02-08T08:53:00.652Z,36.50
2023-02-08T08:55:27.873Z,37.70
2023-02-08T08:57:54.836Z,37.90
2023-02-08T09:00:22.456Z,38.60
2023-02-08T09:02:49.546Z,35.50
2023-02-08T09:05:16.398Z,36.80
2023-02-08T09:07:43.498Z,35.80
2023-02-08T09:10:15.522Z,33.50
2023-02-08T09:12:42.766Z,36.10
2023-02-08T09:15:11.203Z,36.30
2023-02-08T09:17:39.391Z,35.60
2023-02-08T09:20:06.755Z,36.10
2023-02-08T09:22:33.707Z,37.40
2023-02-08T09:25:01.594Z,34.30
2023-02-08T09:27:29.316Z,35.30
2023-02-08T09:29:56.660Z,31.90
2023-02-08T09:32:23.576Z,29.10
2023-02-08T09:34:51.253Z,16.50
2023-02-08T09:37:19.066Z,15.10
2023-02-08T09:39:46.115Z,15.50
2023-02-08T09:42:20.916Z,17.40
2023-02-08T09:45:21.728Z,19.80
2023-02-08T09:48:00.160Z,16.90
2023-02-08T09:50:42.015Z,18.60
2023-02-08T09:53:17.666Z,17.90
2023-02-08T09:55:46.358Z,18.80
2023-02-08T09:58:17.674Z,18.20
2023-02-08T10:00:46.993Z,16.50
2023-02-08T10:03:42.020Z,19.40
2023-02-08T10:06:11.328Z,17.90
2023-02-08T10:08:38.127Z,18.60
2023-02-08T10:11:38.418Z,19.40
2023-02-08T10:14:08.687Z,17.60
2023-02-08T10:16:47.100Z,18.00
2023-02-08T10:19:46.464Z,18.00
2023-02-08T10:22:32.727Z,19.80
2023-02-08T10:25:22.283Z,19.20
2023-02-08T10:28:10.162Z,21.40
2023-02-08T10:30:42.562Z,18.10
2023-02-08T10:33:31.867Z,20.40
2023-02-08T10:35:58.819Z,19.90
2023-02-08T10:38:45.456Z,21.80
2023-02-08T10:41:29.363Z,20.60
2023-02-08T10:44:18.052Z,19.70
2023-02-08T10:46:52.340Z,21.00
2023-02-08T10:49:29.080Z,19.10
2023-02-08T10:51:55.977Z,17.80
2023-02-08T10:54:22.896Z,18.20
2023-02-08T10:56:57.995Z,19.90
2023-02-08T10:59:35.360Z,18.40
2023-02-08T11:02:02.176Z,16.70
2023-02-08T11:04:29.237Z,15.80
2023-02-08T11:06:58.019Z,19.80
2023-02-08T11:09:28.936Z,19.20
2023-02-08T11:11:57.117Z,16.60
2023-02-08T11:14:45.962Z,17.10
2023-02-08T11:17:26.172Z,18.50
2023-02-08T11:19:53.155Z,22.10
2023-02-08T11:22:21.816Z,17.50
2023-02-08T11:25:05.117Z,17.10
2023-02-08T11:27:34.288Z,19.60
2023-02-08T11:30:15.011Z,17.10
2023-02-08T11:32:43.636Z,20.10
2023-02-08T11:35:22.132Z,18.50
2023-02-08T11:37:52.958Z,19.10
2023-02-08T11:40:42.496Z,18.20
2023-02-08T11:43:33.526Z,20.30
2023-02-08T11:46:01.717Z,17.30
2023-02-08T11:48:55.481Z,21.10
2023-02-08T11:51:29.597Z,21.80
2023-02-08T11:53:59.970Z,21.10
2023-02-08T11:56:31.432Z,21.90
2023-02-08T11:59:15.746Z,21.60
2023-02-08T12:01:43.182Z,23.00
2023-02-08T12:04:12.275Z,19.80
2023-02-08T12:07:14.899Z,23.70
2023-02-08T12:09:56.982Z,22.20
2023-02-08T12:12:46.767Z,20.20
2023-02-08T12:15:16.400Z,22.80
2023-02-08T12:18:16.731Z,22.00
2023-02-08T12:20:45.094Z,24.60
2023-02-08T12:23:28.229Z,19.30
2023-02-08T12:26:07.469Z,22.60
2023-02-08T12:28:52.352Z,19.90
2023-02-08T12:31:24.304Z,17.00
2023-02-08T12:34:20.831Z,21.50
2023-02-08T12:37:15.096Z,19.30
2023-02-08T12:40:06.254Z,21.90
2023-02-08T12:43:08.309Z,20.20
2023-02-08T12:45:53.330Z,24.10
2023-02-08T12:48:49.332Z,21.50
2023-02-08T12:51:30.072Z,21.10
2023-02-08T12:53:59.244Z,21.30
2023-02-08T12:56:31.256Z,22.10
2023-02-08T12:59:11.780Z,23.80
2023-02-08T13:01:43.806Z,24.20
2023-02-08T13:04:15.189Z,28.70
2023-02-08T13:06:51.468Z,27.40
2023-02-08T13:09:35.400Z,34.80
2023-02-08T13:12:12.270Z,30.80
2023-02-08T13:14:42.358Z,42.10
2023-02-08T13:17:17.910Z,32.10
2023-02-08T13:19:59.773Z,37.50
2023-02-08T13:22:30.333Z,32.60
2023-02-08T13:25:06.968Z,38.20
2023-02-08T13:27:34.847Z,35.10
2023-02-08T13:30:01.976Z,33.50
2023-02-08T13:32:36.250Z,35.70
2023-02-08T13:35:11.443Z,34.00
2023-02-08T13:37:40.090Z,32.40
2023-02-08T13:40:10.251Z,36.00
2023-02-08T13:42:42.764Z,35.10
2023-02-08T13:45:10.628Z,33.20
2023-02-08T13:47:48.051Z,33.70
2023-02-08T13:50:29.122Z,30.60
2023-02-08T13:52:56.666Z,34.60
2023-02-08T13:55:35.520Z,30.50
2023-02-08T13:58:14.900Z,28.20
2023-02-08T14:00:56.835Z,34.20
2023-02-08T14:03:28.060Z,33.70
2023-02-08T14:05:58.125Z,34.00
2023-02-08T14:08:43.798Z,31.00
2023-02-08T14:11:34.552Z,30.90
2023-02-08T14:14:04.419Z,30.40
2023-02-08T14:16:32.288Z,32.70
2023-02-08T14:19:25.652Z,34.20
2023-02-08T14:22:00.506Z,34.70
2023-02-08T14:24:34.770Z,32.10
2023-02-08T14:27:21.569Z,33.80
2023-02-08T14:30:20.694Z,30.70
2023-02-08T14:32:51.052Z,31.20
2023-02-08T14:35:20.264Z,30.90
2023-02-08T14:37:47.721Z,35.90
2023-02-08T14:40:25.021Z,30.70
2023-02-08T14:42:52.317Z,29.90
2023-02-08T14:45:33.766Z,26.50
2023-02-08T14:48:19.780Z,28.20
2023-02-08T14:51:11.126Z,27.40
2023-02-08T14:53:41.240Z,26.10
2023-02-08T14:56:22.465Z,22.60
2023-02-08T14:58:52.929Z,23.10
2023-02-08T15:01:22.248Z,21.40
2023-02-08T15:03:50.226Z,24.30
2023-02-08T15:06:20.212Z,21.70
2023-02-08T15:08:51.685Z,27.40
2023-02-08T15:11:26.820Z,30.20
2023-02-08T15:13:54.691Z,28.50
2023-02-08T15:16:22.075Z,27.70
2023-02-08T15:18:50.066Z,28.70
2023-02-08T15:21:23.145Z,26.00
2023-02-08T15:24:18.856Z,30.80
2023-02-08T15:26:53.220Z,27.20
2023-02-08T15:29:26.122Z,23.10
2023-02-08T15:31:57.132Z,24.20
2023-02-08T15:34:25.041Z,28.30
2023-02-08T15:36:55.775Z,27.60
2023-02-08T15:39:35.041Z,31.50
2023-02-08T15:42:01.823Z,29.60
2023-02-08T15:44:30.626Z,31.50
2023-02-08T15:47:02.588Z,37.30
2023-02-08T15:49:31.237Z,47.20
2023-02-08T15:51:58.397Z,45.00
2023-02-08T15:54:25.506Z,43.00
2023-02-08T15:56:59.432Z,43.00
2023-02-08T15:59:32.366Z,41.90
2023-02-08T16:02:05.344Z,40.70
2023-02-08T16:04:40.825Z,41.10
2023-02-08T16:07:22.336Z,36.50
2023-02-08T16:09:49.197Z,38.20
2023-02-08T16:12:20.922Z,35.00
2023-02-08T16:14:52.804Z,32.10
2023-02-08T16:17:43.171Z,29.90
2023-02-08T16:20:33.949Z,32.70
2023-02-08T16:23:03.356Z,46.70
2023-02-08T16:25:34.907Z,49.80
2023-02-08T16:28:05.567Z,54.00
2023-02-08T16:30:34.041Z,56.50
2023-02-08T16:33:07.703Z,61.00
2023-02-08T16:35:37.194Z,63.80
2023-02-08T16:38:05.728Z,55.80
2023-02-08T16:40:52.985Z,57.40
2023-02-08T16:43:35.430Z,61.30
2023-02-08T16:46:11.173Z,55.40
2023-02-08T16:48:42.232Z,50.60
2023-02-08T16:51:16.198Z,50.70
2023-02-08T16:53:43.647Z,57.40
2023-02-08T16:56:10.717Z,56.30
2023-02-08T16:58:37.606Z,53.30
2023-02-08T17:01:04.735Z,68.60
2023-02-08T17:03:32.735Z,134.00
2023-02-08T17:06:11.001Z,131.10
2023-02-08T17:08:38.842Z,192.00
2023-02-08T17:11:05.742Z,211.30
2023-02-08T17:13:32.571Z,104.40
2023-02-08T17:15:59.712Z,118.10
2023-02-08T17:18:26.661Z,108.80
2023-02-08T17:20:58.993Z,82.80
2023-02-08T17:23:26.410Z,75.90
2023-02-08T17:25:53.226Z,108.30
2023-02-08T17:28:20.118Z,142.70
2023-02-08T17:30:47.671Z,130.90
2023-02-08T17:33:17.576Z,132.30
2023-02-08T17:35:48.050Z,144.10
2023-02-08T17:38:15.201Z,204.00
2023-02-08T17:40:42.561Z,221.00
2023-02-08T17:43:10.169Z,138.90
2023-02-08T17:45:41.599Z,111.90
2023-02-08T17:48:08.630Z,112.30
2023-02-08T17:50:35.743Z,98.80
2023-02-08T17:53:03.532Z,68.50
2023-02-08T17:55:30.393Z,63.20
2023-02-08T17:57:57.505Z,64.00
2023-02-08T18:00:25.286Z,70.80
2023-02-08T18:02:53.767Z,73.10
2023-02-08T18:05:25.149Z,74.60
2023-02-08T18:07:53.817Z,64.40
2023-02-08T18:10:21.929Z,65.50
2023-02-08T18:12:49.660Z,59.00
2023-02-08T18:15:19.532Z,60.20
2023-02-08T18:17:47.673Z,60.30
2023-02-08T18:20:14.708Z,56.50
2023-02-08T18:22:42.907Z,63.00
2023-02-08T18:25:10.319Z,61.30
2023-02-08T18:27:37.371Z,60.90
2023-02-08T18:30:04.826Z,56.50
2023-02-08T18:32:31.991Z,57.00
2023-02-08T18:35:03.211Z,59.70
2023-02-08T18:37:31.678Z,56.50
2023-02-08T18:39:59.368Z,61.20
2023-02-08T18:42:26.370Z,62.70
2023-02-08T18:44:53.409Z,72.40
2023-02-08T18:47:20.288Z,67.40
2023-02-08T18:49:47.380Z,71.30
2023-02-08T18:52:16.801Z,83.70
2023-02-08T18:54:44.067Z,80.60
2023-02-08T18:57:10.915Z,89.40
2023-02-08T18:59:38.583Z,72.50
2023-02-08T19:02:06.658Z,78.50
2023-02-08T19:04:37.734Z,74.80
2023-02-08T19:07:06.804Z,77.80
2023-02-08T19:09:37.660Z,72.20
2023-02-08T19:12:05.447Z,71.00
2023-02-08T19:14:33.194Z,74.10
2023-02-08T19:17:00.381Z,85.70
2023-02-08T19:19:27.517Z,92.00
2023-02-08T19:21:54.642Z,75.40
2023-02-08T19:24:21.652Z,78.50
2023-02-08T19:26:48.485Z,81.20
2023-02-08T19:29:17.487Z,86.50
2023-02-08T19:31:45.156Z,92.00
2023-02-08T19:34:12.419Z,84.90
2023-02-08T19:36:44.960Z,89.00
2023-02-08T19:39:14.854Z,88.80
2023-02-08T19:41:42.611Z,85.90
2023-02-08T19:44:11.934Z,86.60
2023-02-08T19:46:39.330Z,74.40
2023-02-08T19:49:06.469Z,84.70
2023-02-08T19:51:36.581Z,84.50
2023-02-08T19:54:06.773Z,77.00
2023-02-08T19:56:35.061Z,81.10
2023-02-08T19:59:05.896Z,78.70
2023-02-08T20:01:34.160Z,79.00
2023-02-08T20:04:01.218Z,86.40
2023-02-08T20:06:30.330Z,78.80
2023-02-08T20:09:00.361Z,79.70
2023-02-08T20:11:37.076Z,82.50
2023-02-08T20:14:06.132Z,75.70
2023-02-08T20:16:33.723Z,74.10
2023-02-08T20:19:01.559Z,79.70
2023-02-08T20:21:28.854Z,88.30
2023-02-08T20:23:55.810Z,92.30
2023-02-08T20:26:26.112Z,97.50
2023-02-08T20:28:55.055Z,100.00
2023-02-08T20:31:24.772Z,90.60
2023-02-08T20:33:52.610Z,84.50
2023-02-08T20:36:26.530Z,86.20
2023-02-08T20:38:54.760Z,86.70
2023-02-08T20:41:22.520Z,90.00
2023-02-08T20:43:50.187Z,82.40
2023-02-08T20:46:23.608Z,84.20
2023-02-08T20:48:52.249Z,84.10
2023-02-08T20:51:20.596Z,82.50
2023-02-08T20:53:48.015Z,79.40
2023-02-08T20:56:18.811Z,81.10
2023-02-08T20:58:45.649Z,73.80
2023-02-08T21:01:15.614Z,57.20
2023-02-08T21:03:42.943Z,58.60
2023-02-08T21:06:14.101Z,60.90
2023-02-08T21:08:44.138Z,55.50
2023-02-08T21:11:11.842Z,60.70
2023-02-08T21:13:38.850Z,62.40
2023-02-08T21:16:06.880Z,69.00
2023-02-08T21:18:36.221Z,58.00
2023-02-08T21:21:04.442Z,52.70
2023-02-08T21:23:31.818Z,54.00
2023-02-08T21:25:59.705Z,51.30
2023-02-08T21:28:26.644Z,56.80
2023-02-08T21:31:00.923Z,52.00
2023-02-08T21:33:29.967Z,58.10
2023-02-08T21:36:00.307Z,71.80
2023-02-08T21:38:30.023Z,70.50
2023-02-08T21:40:56.777Z,63.70
2023-02-08T21:43:23.605Z,65.80
2023-02-08T21:45:50.692Z,59.70
2023-02-08T21:48:17.495Z,84.70
2023-02-08T21:51:03.091Z,80.80
2023-02-08T21:53:48.903Z,72.70
2023-02-08T21:56:16.171Z,104.50
2023-02-08T21:58:43.578Z,78.40
2023-02-08T22:01:10.538Z,81.90
2023-02-08T22:03:38.169Z,79.90
2023-02-08T22:06:05.329Z,78.10
2023-02-08T22:08:32.146Z,87.50
2023-02-08T22:11:04.027Z,102.30
2023-02-08T22:13:32.870Z,95.90
2023-02-08T22:16:01.916Z,101.20
2023-02-08T22:18:28.813Z,95.90
2023-02-08T22:20:55.970Z,96.50
2023-02-08T22:23:22.763Z,81.70
2023-02-08T22:25:52.486Z,86.90
2023-02-08T22:28:19.754Z,80.60
2023-02-08T22:30:48.549Z,79.90
2023-02-08T22:33:15.588Z,85.50
2023-02-08T22:35:42.807Z,81.10
2023-02-08T22:38:10.001Z,81.70
2023-02-08T22:40:36.947Z,81.40
2023-02-08T22:43:03.940Z,75.80
2023-02-08T22:45:31.245Z,88.50
2023-02-08T22:47:58.010Z,83.60
2023-02-08T22:50:24.843Z,87.70
2023-02-08T22:52:51.565Z,82.50
2023-02-08T22:55:18.535Z,83.70
2023-02-08T22:57:45.419Z,76.30
2023-02-08T23:00:13.963Z,85.20
2023-02-08T23:02:41.883Z,94.80
2023-02-08T23:05:08.736Z,99.40
2023-02-08T23:07:36.854Z,95.20
2023-02-08T23:10:05.028Z,84.90
2023-02-08T23:12:32.351Z,85.80
2023-02-08T23:14:59.250Z,82.50
2023-02-08T23:17:26.218Z,83.30
2023-02-08T23:19:53.040Z,82.40
2023-02-08T23:22:19.957Z,78.10
2023-02-08T23:24:46.794Z,81.50
2023-02-08T23:27:13.706Z,82.00
2023-02-08T23:29:40.720Z,80.30
2023-02-08T23:32:07.734Z,82.80
2023-02-08T23:34:34.834Z,83.90
2023-02-08T23:37:01.761Z,90.00
2023-02-08T23:39:28.679Z,96.70
2023-02-08T23:41:55.927Z,88.10
2023-02-08T23:44:23.060Z,81.00
2023-02-08T23:46:50.157Z,83.20
2023-02-08T23:49:16.986Z,74.20
2023-02-08T23:51:43.845Z,76.90
2023-02-08T23:54:11.144Z,84.30
2023-02-08T23:56:38.258Z,86.70
2023-02-08T23:59:07.630Z,79.90
